sensor_id;sensor_type;location;lat;lon;timestamp;pressure;altitude;pressure_sealevel;temperature;humidity
68669;BME280;55652;49.454;7.798;2022-07-29T11:58:30;98439.53;;;28.11;49.63
68669;BME280;55652;49.454;7.798;2022-07-29T12:00:57;98437.72;;;28.20;50.33
68669;BME280;55652;49.454;7.798;2022-07-29T12:03:26;98438.56;;;28.35;50.32
68669;BME280;55652;49.454;7.798;2022-07-29T12:05:52;98440.63;;;28.43;48.97
68669;BME280;55652;49.454;7.798;2022-07-29T12:08:22;98429.47;;;28.53;46.29
68669;BME280;55652;49.454;7.798;2022-07-29T12:10:49;98426.22;;;28.65;48.15
68669;BME280;55652;49.454;7.798;2022-07-29T12:13:17;98424.38;;;28.74;48.61
68669;BME280;55652;49.454;7.798;2022-07-29T12:15:53;98422.56;;;28.83;44.89
68669;BME280;55652;49.454;7.798;2022-07-29T12:18:20;98423.88;;;29.00;45.17
68669;BME280;55652;49.454;7.798;2022-07-29T12:20:47;98433.84;;;29.09;46.19
68669;BME280;55652;49.454;7.798;2022-07-29T12:23:14;98425.19;;;29.16;44.45
68669;BME280;55652;49.454;7.798;2022-07-29T12:25:42;98423.16;;;29.22;41.46
68669;BME280;55652;49.454;7.798;2022-07-29T12:28:13;98419.47;;;29.26;43.23
68669;BME280;55652;49.454;7.798;2022-07-29T12:30:46;98426.28;;;29.29;43.78
68669;BME280;55652;49.454;7.798;2022-07-29T12:35:45;98427.00;;;29.34;44.15
68669;BME280;55652;49.454;7.798;2022-07-29T12:38:12;98422.59;;;29.33;43.81
68669;BME280;55652;49.454;7.798;2022-07-29T12:40:38;98412.59;;;29.37;44.24
68669;BME280;55652;49.454;7.798;2022-07-29T12:45:35;98415.53;;;29.41;42.59
68669;BME280;55652;49.454;7.798;2022-07-29T12:48:00;98426.56;;;29.41;42.38
68669;BME280;55652;49.454;7.798;2022-07-29T12:50:26;98425.44;;;29.42;42.40
68669;BME280;55652;49.454;7.798;2022-07-29T12:52:51;98418.81;;;29.43;41.31
68669;BME280;55652;49.454;7.798;2022-07-29T12:55:40;98420.41;;;29.44;42.59
68669;BME280;55652;49.454;7.798;2022-07-29T12:58:06;98415.75;;;29.45;42.54
68669;BME280;55652;49.454;7.798;2022-07-29T13:00:32;98416.75;;;29.49;41.47
68669;BME280;55652;49.454;7.798;2022-07-29T13:02:59;98416.63;;;29.54;41.33
68669;BME280;55652;49.454;7.798;2022-07-29T13:05:39;98420.06;;;29.59;41.04
68669;BME280;55652;49.454;7.798;2022-07-29T13:08:15;98422.19;;;29.62;40.89
68669;BME280;55652;49.454;7.798;2022-07-29T13:10:43;98423.53;;;29.65;39.99
68669;BME280;55652;49.454;7.798;2022-07-29T13:13:12;98415.50;;;29.69;39.89
68669;BME280;55652;49.454;7.798;2022-07-29T13:15:40;98420.38;;;29.72;39.48
68669;BME280;55652;49.454;7.798;2022-07-29T13:18:29;98417.28;;;29.73;39.30
68669;BME280;55652;49.454;7.798;2022-07-29T13:20:56;98427.19;;;29.74;38.63
68669;BME280;55652;49.454;7.798;2022-07-29T13:23:21;98420.88;;;29.74;37.50
68669;BME280;55652;49.454;7.798;2022-07-29T13:25:47;98424.44;;;29.74;37.56
68669;BME280;55652;49.454;7.798;2022-07-29T13:28:12;98413.44;;;29.74;37.06
68669;BME280;55652;49.454;7.798;2022-07-29T13:30:39;98422.00;;;29.73;38.87
68669;BME280;55652;49.454;7.798;2022-07-29T13:33:06;98418.13;;;29.74;39.64
68669;BME280;55652;49.454;7.798;2022-07-29T13:35:31;98414.75;;;29.77;40.06
68669;BME280;55652;49.454;7.798;2022-07-29T13:37:56;98421.34;;;29.76;40.19
68669;BME280;55652;49.454;7.798;2022-07-29T13:40:22;98418.94;;;29.74;36.63
68669;BME280;55652;49.454;7.798;2022-07-29T13:42:47;98424.94;;;29.76;37.28
68669;BME280;55652;49.454;7.798;2022-07-29T13:45:13;98430.34;;;29.81;37.07
68669;BME280;55652;49.454;7.798;2022-07-29T13:47:39;98422.56;;;29.83;38.23
68669;BME280;55652;49.454;7.798;2022-07-29T13:50:07;98419.66;;;29.89;39.01
68669;BME280;55652;49.454;7.798;2022-07-29T13:52:33;98429.47;;;29.95;36.61
68669;BME280;55652;49.454;7.798;2022-07-29T13:54:58;98417.28;;;29.96;36.08
68669;BME280;55652;49.454;7.798;2022-07-29T13:57:24;98410.34;;;29.98;37.89
68669;BME280;55652;49.454;7.798;2022-07-29T13:59:52;98412.47;;;30.01;33.56
68669;BME280;55652;49.454;7.798;2022-07-29T14:02:17;98415.09;;;30.06;36.62
68669;BME280;55652;49.454;7.798;2022-07-29T14:04:43;98420.78;;;30.10;36.65
68669;BME280;55652;49.454;7.798;2022-07-29T14:07:08;98415.13;;;30.15;35.73
68669;BME280;55652;49.454;7.798;2022-07-29T14:09:35;98415.66;;;30.17;35.81
68669;BME280;55652;49.454;7.798;2022-07-29T14:12:00;98419.91;;;30.23;35.47
68669;BME280;55652;49.454;7.798;2022-07-29T14:14:27;98418.66;;;30.30;36.19
68669;BME280;55652;49.454;7.798;2022-07-29T14:16:52;98423.03;;;30.31;37.94
68669;BME280;55652;49.454;7.798;2022-07-29T14:19:18;98414.94;;;30.34;36.45
68669;BME280;55652;49.454;7.798;2022-07-29T14:21:43;98419.22;;;30.40;36.89
68669;BME280;55652;49.454;7.798;2022-07-29T14:24:11;98416.78;;;30.47;36.70
68669;BME280;55652;49.454;7.798;2022-07-29T14:26:37;98421.53;;;30.56;38.65
68669;BME280;55652;49.454;7.798;2022-07-29T14:29:02;98416.22;;;30.59;38.65
68669;BME280;55652;49.454;7.798;2022-07-29T14:31:27;98422.06;;;30.66;36.30
68669;BME280;55652;49.454;7.798;2022-07-29T14:33:53;98430.19;;;30.71;37.18
68669;BME280;55652;49.454;7.798;2022-07-29T14:36:18;98427.28;;;30.77;37.63
68669;BME280;55652;49.454;7.798;2022-07-29T14:38:43;98420.84;;;30.81;38.33
